sensor_id;sensor_type;location;lat;lon;timestamp;temperature;humidity
68257;DHT22;55069;51.568;4.656;2022-10-16T00:00:40;12.93;87.24
68257;DHT22;55069;51.568;4.656;2022-10-16T00:03:06;12.96;87.28
68257;DHT22;55069;51.568;4.656;2022-10-16T00:05:33;12.96;87.35
68257;DHT22;55069;51.568;4.656;2022-10-16T00:08:03;12.96;87.19
68257;DHT22;55069;51.568;4.656;2022-10-16T00:10:28;12.98;87.39
68257;DHT22;55069;51.568;4.656;2022-10-16T00:12:54;12.98;87.60
68257;DHT22;55069;51.568;4.656;2022-10-16T00:15:19;13.00;87.27
68257;DHT22;55069;51.568;4.656;2022-10-16T00:17:45;13.03;87.35
68257;DHT22;55069;51.568;4.656;2022-10-16T00:20:10;13.10;87.22
68257;DHT22;55069;51.568;4.656;2022-10-16T00:22:36;13.13;87.09
68257;DHT22;55069;51.568;4.656;2022-10-16T00:25:01;13.13;87.18
68257;DHT22;55069;51.568;4.656;2022-10-16T00:27:27;13.18;86.81
68257;DHT22;55069;51.568;4.656;2022-10-16T00:29:52;13.18;86.92
68257;DHT22;55069;51.568;4.656;2022-10-16T00:32:19;13.27;86.71
68257;DHT22;55069;51.568;4.656;2022-10-16T00:34:45;13.30;86.59
68257;DHT22;55069;51.568;4.656;2022-10-16T00:37:11;13.30;86.40
68257;DHT22;55069;51.568;4.656;2022-10-16T00:39:37;13.32;86.55
68257;DHT22;55069;51.568;4.656;2022-10-16T00:42:03;13.26;86.62
68257;DHT22;55069;51.568;4.656;2022-10-16T00:47:19;13.20;86.81
68257;DHT22;55069;51.568;4.656;2022-10-16T00:49:47;13.23;86.90
68257;DHT22;55069;51.568;4.656;2022-10-16T00:52:14;13.26;86.98
68257;DHT22;55069;51.568;4.656;2022-10-16T00:54:40;13.26;86.66
68257;DHT22;55069;51.568;4.656;2022-10-16T00:57:06;13.27;86.82
68257;DHT22;55069;51.568;4.656;2022-10-16T00:59:39;13.24;87.00
68257;DHT22;55069;51.568;4.656;2022-10-16T01:02:07;13.24;86.86
68257;DHT22;55069;51.568;4.656;2022-10-16T01:04:38;13.18;86.95
68257;DHT22;55069;51.568;4.656;2022-10-16T01:07:16;13.09;87.24
68257;DHT22;55069;51.568;4.656;2022-10-16T01:10:17;13.05;87.57
68257;DHT22;55069;51.568;4.656;2022-10-16T01:15:47;12.82;88.22
68257;DHT22;55069;51.568;4.656;2022-10-16T01:20:50;12.72;89.13
68257;DHT22;55069;51.568;4.656;2022-10-16T01:23:49;12.71;89.15
68257;DHT22;55069;51.568;4.656;2022-10-16T01:29:08;12.72;89.21
68257;DHT22;55069;51.568;4.656;2022-10-16T01:31:37;12.69;89.29
68257;DHT22;55069;51.568;4.656;2022-10-16T01:34:33;12.69;89.17
68257;DHT22;55069;51.568;4.656;2022-10-16T01:37:05;12.78;89.15
68257;DHT22;55069;51.568;4.656;2022-10-16T01:39:35;12.78;89.20
68257;DHT22;55069;51.568;4.656;2022-10-16T01:42:16;12.72;89.24
68257;DHT22;55069;51.568;4.656;2022-10-16T01:44:43;12.69;89.22
68257;DHT22;55069;51.568;4.656;2022-10-16T01:47:10;12.61;89.47
68257;DHT22;55069;51.568;4.656;2022-10-16T01:49:38;12.51;89.80
68257;DHT22;55069;51.568;4.656;2022-10-16T01:52:06;12.48;90.03
68257;DHT22;55069;51.568;4.656;2022-10-16T01:54:35;12.47;90.19
68257;DHT22;55069;51.568;4.656;2022-10-16T01:57:04;12.40;90.51
68257;DHT22;55069;51.568;4.656;2022-10-16T01:59:33;12.32;90.75
68257;DHT22;55069;51.568;4.656;2022-10-16T02:02:06;12.34;90.81
68257;DHT22;55069;51.568;4.656;2022-10-16T02:04:37;12.41;90.80
68257;DHT22;55069;51.568;4.656;2022-10-16T02:07:03;12.45;90.84
68257;DHT22;55069;51.568;4.656;2022-10-16T02:09:30;12.43;90.75
68257;DHT22;55069;51.568;4.656;2022-10-16T02:11:59;12.43;90.60
68257;DHT22;55069;51.568;4.656;2022-10-16T02:14:28;12.45;90.43
68257;DHT22;55069;51.568;4.656;2022-10-16T02:16:54;12.44;90.63
68257;DHT22;55069;51.568;4.656;2022-10-16T02:19:20;12.44;90.82
68257;DHT22;55069;51.568;4.656;2022-10-16T02:22:02;12.53;90.53
68257;DHT22;55069;51.568;4.656;2022-10-16T02:30:33;12.44;90.68
68257;DHT22;55069;51.568;4.656;2022-10-16T02:33:03;12.41;90.65
68257;DHT22;55069;51.568;4.656;2022-10-16T02:35:31;12.43;90.84
68257;DHT22;55069;51.568;4.656;2022-10-16T02:37:56;12.38;90.68
68257;DHT22;55069;51.568;4.656;2022-10-16T02:40:24;12.36;90.82
68257;DHT22;55069;51.568;4.656;2022-10-16T02:42:51;12.34;90.94
68257;DHT22;55069;51.568;4.656;2022-10-16T02:45:18;12.26;91.06
68257;DHT22;55069;51.568;4.656;2022-10-16T02:47:44;12.30;91.21
68257;DHT22;55069;51.568;4.656;2022-10-16T02:50:09;12.29;91.18
68257;DHT22;55069;51.568;4.656;2022-10-16T02:52:35;12.29;91.09
68257;DHT22;55069;51.568;4.656;2022-10-16T02:55:00;12.24;91.25
68257;DHT22;55069;51.568;4.656;2022-10-16T02:57:26;12.16;91.30
68257;DHT22;55069;51.568;4.656;2022-10-16T02:59:52;12.16;91.63
68257;DHT22;55069;51.568;4.656;2022-10-16T03:02:18;12.16;91.67
68257;DHT22;55069;51.568;4.656;2022-10-16T03:04:43;12.13;91.77
68257;DHT22;55069;51.568;4.656;2022-10-16T03:07:09;12.14;91.66
68257;DHT22;55069;51.568;4.656;2022-10-16T03:09:34;12.13;91.70
68257;DHT22;55069;51.568;4.656;2022-10-16T03:12:00;12.12;91.85
68257;DHT22;55069;51.568;4.656;2022-10-16T03:14:26;12.09;91.79
68257;DHT22;55069;51.568;4.656;2022-10-16T03:16:51;12.10;91.81
68257;DHT22;55069;51.568;4.656;2022-10-16T03:19:17;12.10;91.93
68257;DHT22;55069;51.568;4.656;2022-10-16T03:21:44;12.09;92.03
68257;DHT22;55069;51.568;4.656;2022-10-16T03:24:09;12.06;92.07
68257;DHT22;55069;51.568;4.656;2022-10-16T03:26:35;12.00;91.98
68257;DHT22;55069;51.568;4.656;2022-10-16T03:29:01;11.95;92.01
68257;DHT22;55069;51.568;4.656;2022-10-16T03:31:29;11.96;92.27
68257;DHT22;55069;51.568;4.656;2022-10-16T03:33:55;11.96;92.30
68257;DHT22;55069;51.568;4.656;2022-10-16T03:36:20;11.96;92.37
68257;DHT22;55069;51.568;4.656;2022-10-16T03:38:46;11.97;92.47
68257;DHT22;55069;51.568;4.656;2022-10-16T03:41:11;11.96;92.42
68257;DHT22;55069;51.568;4.656;2022-10-16T03:43:36;11.99;92.31
68257;DHT22;55069;51.568;4.656;2022-10-16T03:46:02;11.99;92.27
68257;DHT22;55069;51.568;4.656;2022-10-16T03:48:28;11.95;92.33
68257;DHT22;55069;51.568;4.656;2022-10-16T03:50:54;11.97;92.42
68257;DHT22;55069;51.568;4.656;2022-10-16T03:53:20;11.97;92.49
68257;DHT22;55069;51.568;4.656;2022-10-16T03:55:45;11.96;92.61
68257;DHT22;55069;51.568;4.656;2022-10-16T03:58:11;11.93;92.72
68257;DHT22;55069;51.568;4.656;2022-10-16T04:00:44;11.99;92.71
68257;DHT22;55069;51.568;4.656;2022-10-16T04:03:10;12.00;92.56
68257;DHT22;55069;51.568;4.656;2022-10-16T04:05:36;11.99;92.51
68257;DHT22;55069;51.568;4.656;2022-10-16T04:08:02;11.89;92.57
68257;DHT22;55069;51.568;4.656;2022-10-16T04:10:28;11.89;92.78
68257;DHT22;55069;51.568;4.656;2022-10-16T04:12:54;11.86;92.91
68257;DHT22;55069;51.568;4.656;2022-10-16T04:15:24;11.79;93.04
68257;DHT22;55069;51.568;4.656;2022-10-16T04:17:51;11.76;93.15
68257;DHT22;55069;51.568;4.656;2022-10-16T04:20:17;11.71;93.27
68257;DHT22;55069;51.568;4.656;2022-10-16T04:22:42;11.68;93.37
68257;DHT22;55069;51.568;4.656;2022-10-16T04:25:08;11.65;93.57
68257;DHT22;55069;51.568;4.656;2022-10-16T04:27:34;11.65;93.51
68257;DHT22;55069;51.568;4.656;2022-10-16T04:30:00;11.64;93.61
68257;DHT22;55069;51.568;4.656;2022-10-16T04:32:26;11.62;93.67
68257;DHT22;55069;51.568;4.656;2022-10-16T04:34:52;11.61;93.85
68257;DHT22;55069;51.568;4.656;2022-10-16T04:37:18;11.58;93.96
68257;DHT22;55069;51.568;4.656;2022-10-16T04:39:44;11.50;93.92
68257;DHT22;55069;51.568;4.656;2022-10-16T04:42:10;11.48;94.03
68257;DHT22;55069;51.568;4.656;2022-10-16T04:44:36;11.44;94.18
68257;DHT22;55069;51.568;4.656;2022-10-16T04:47:01;11.44;94.24
68257;DHT22;55069;51.568;4.656;2022-10-16T04:49:27;11.42;94.36
68257;DHT22;55069;51.568;4.656;2022-10-16T04:51:52;11.42;94.42
68257;DHT22;55069;51.568;4.656;2022-10-16T04:54:18;11.38;94.40
68257;DHT22;55069;51.568;4.656;2022-10-16T04:56:44;11.42;94.43
68257;DHT22;55069;51.568;4.656;2022-10-16T04:59:16;11.45;94.45
68257;DHT22;55069;51.568;4.656;2022-10-16T05:01:41;11.39;94.44
68257;DHT22;55069;51.568;4.656;2022-10-16T05:04:07;11.41;94.53
68257;DHT22;55069;51.568;4.656;2022-10-16T05:06:32;11.41;94.68
68257;DHT22;55069;51.568;4.656;2022-10-16T05:08:58;11.34;94.71
68257;DHT22;55069;51.568;4.656;2022-10-16T05:11:24;11.37;94.85
68257;DHT22;55069;51.568;4.656;2022-10-16T05:13:49;11.42;94.88
68257;DHT22;55069;51.568;4.656;2022-10-16T05:16:15;11.39;94.87
68257;DHT22;55069;51.568;4.656;2022-10-16T05:18:40;11.37;94.84
68257;DHT22;55069;51.568;4.656;2022-10-16T05:21:06;11.38;94.95
68257;DHT22;55069;51.568;4.656;2022-10-16T05:23:31;11.37;94.99
68257;DHT22;55069;51.568;4.656;2022-10-16T05:25:58;11.31;95.07
68257;DHT22;55069;51.568;4.656;2022-10-16T05:28:28;11.30;95.14
68257;DHT22;55069;51.568;4.656;2022-10-16T05:30:56;11.26;95.21
68257;DHT22;55069;51.568;4.656;2022-10-16T05:33:24;11.30;95.35
68257;DHT22;55069;51.568;4.656;2022-10-16T05:35:50;11.39;95.37
68257;DHT22;55069;51.568;4.656;2022-10-16T05:38:16;11.45;95.32
68257;DHT22;55069;51.568;4.656;2022-10-16T05:40:42;11.42;95.15
68257;DHT22;55069;51.568;4.656;2022-10-16T05:43:07;11.39;95.12
68257;DHT22;55069;51.568;4.656;2022-10-16T05:45:33;11.38;95.04
68257;DHT22;55069;51.568;4.656;2022-10-16T05:47:59;11.44;95.15
68257;DHT22;55069;51.568;4.656;2022-10-16T05:50:25;11.47;95.15
68257;DHT22;55069;51.568;4.656;2022-10-16T05:52:51;11.59;95.03
68257;DHT22;55069;51.568;4.656;2022-10-16T05:55:16;11.64;95.00
68257;DHT22;55069;51.568;4.656;2022-10-16T05:57:41;11.66;94.93
68257;DHT22;55069;51.568;4.656;2022-10-16T06:00:08;11.74;94.76
68257;DHT22;55069;51.568;4.656;2022-10-16T06:02:38;11.78;94.57
68257;DHT22;55069;51.568;4.656;2022-10-16T06:05:04;11.78;94.55
68257;DHT22;55069;51.568;4.656;2022-10-16T06:07:34;11.79;94.45
68257;DHT22;55069;51.568;4.656;2022-10-16T06:10:00;11.81;94.31
68257;DHT22;55069;51.568;4.656;2022-10-16T06:12:26;11.86;94.05
68257;DHT22;55069;51.568;4.656;2022-10-16T06:14:52;11.85;93.89
68257;DHT22;55069;51.568;4.656;2022-10-16T06:17:18;11.81;93.93
68257;DHT22;55069;51.568;4.656;2022-10-16T06:19:43;11.82;93.82
68257;DHT22;55069;51.568;4.656;2022-10-16T06:22:09;11.82;93.84
68257;DHT22;55069;51.568;4.656;2022-10-16T06:24:34;11.81;93.88
68257;DHT22;55069;51.568;4.656;2022-10-16T06:27:00;11.81;93.89
68257;DHT22;55069;51.568;4.656;2022-10-16T06:29:26;11.87;93.84
68257;DHT22;55069;51.568;4.656;2022-10-16T06:31:51;11.93;93.78
68257;DHT22;55069;51.568;4.656;2022-10-16T06:34:18;11.87;93.59
68257;DHT22;55069;51.568;4.656;2022-10-16T06:36:43;11.95;93.36
68257;DHT22;55069;51.568;4.656;2022-10-16T06:39:09;11.96;93.47
68257;DHT22;55069;51.568;4.656;2022-10-16T06:41:35;11.97;93.30
68257;DHT22;55069;51.568;4.656;2022-10-16T06:44:13;11.93;93.29
68257;DHT22;55069;51.568;4.656;2022-10-16T06:46:39;11.95;93.40
68257;DHT22;55069;51.568;4.656;2022-10-16T06:49:05;11.99;93.37
68257;DHT22;55069;51.568;4.656;2022-10-16T06:51:30;12.03;93.35
68257;DHT22;55069;51.568;4.656;2022-10-16T06:53:57;12.17;93.24
68257;DHT22;55069;51.568;4.656;2022-10-16T06:56:25;12.24;93.10
68257;DHT22;55069;51.568;4.656;2022-10-16T06:58:51;12.37;92.99
68257;DHT22;55069;51.568;4.656;2022-10-16T07:01:18;12.50;92.84
68257;DHT22;55069;51.568;4.656;2022-10-16T07:03:45;12.60;92.11
68257;DHT22;55069;51.568;4.656;2022-10-16T07:06:14;12.64;91.63
68257;DHT22;55069;51.568;4.656;2022-10-16T07:08:42;12.68;91.34
68257;DHT22;55069;51.568;4.656;2022-10-16T07:11:10;12.67;91.41
68257;DHT22;55069;51.568;4.656;2022-10-16T07:13:37;12.71;91.36
68257;DHT22;55069;51.568;4.656;2022-10-16T07:16:05;12.67;91.43
68257;DHT22;55069;51.568;4.656;2022-10-16T07:18:31;12.69;91.35
68257;DHT22;55069;51.568;4.656;2022-10-16T07:23:30;12.65;91.26
68257;DHT22;55069;51.568;4.656;2022-10-16T07:25:56;12.64;91.19
68257;DHT22;55069;51.568;4.656;2022-10-16T07:28:21;12.57;91.42
68257;DHT22;55069;51.568;4.656;2022-10-16T07:30:47;12.62;91.43
68257;DHT22;55069;51.568;4.656;2022-10-16T07:33:13;12.68;91.34
68257;DHT22;55069;51.568;4.656;2022-10-16T07:35:50;12.61;91.42
68257;DHT22;55069;51.568;4.656;2022-10-16T07:38:17;12.58;91.59
68257;DHT22;55069;51.568;4.656;2022-10-16T07:40:42;12.55;91.73
68257;DHT22;55069;51.568;4.656;2022-10-16T07:43:08;12.54;91.84
68257;DHT22;55069;51.568;4.656;2022-10-16T07:45:33;12.55;91.99
68257;DHT22;55069;51.568;4.656;2022-10-16T07:47:59;12.57;92.07
68257;DHT22;55069;51.568;4.656;2022-10-16T07:50:25;12.60;92.16
68257;DHT22;55069;51.568;4.656;2022-10-16T07:52:50;12.64;91.93
68257;DHT22;55069;51.568;4.656;2022-10-16T07:55:16;12.74;91.98
68257;DHT22;55069;51.568;4.656;2022-10-16T07:57:41;12.92;91.86
68257;DHT22;55069;51.568;4.656;2022-10-16T08:00:09;13.16;91.09
68257;DHT22;55069;51.568;4.656;2022-10-16T08:02:41;13.63;89.33
68257;DHT22;55069;51.568;4.656;2022-10-16T08:05:07;13.81;88.06
68257;DHT22;55069;51.568;4.656;2022-10-16T08:07:33;13.98;87.58
68257;DHT22;55069;51.568;4.656;2022-10-16T08:09:58;14.08;87.33
68257;DHT22;55069;51.568;4.656;2022-10-16T08:12:25;14.16;86.95
68257;DHT22;55069;51.568;4.656;2022-10-16T08:14:51;14.33;85.93
68257;DHT22;55069;51.568;4.656;2022-10-16T08:17:16;14.44;86.14
68257;DHT22;55069;51.568;4.656;2022-10-16T08:19:46;14.53;85.53
68257;DHT22;55069;51.568;4.656;2022-10-16T08:22:13;14.55;85.40
68257;DHT22;55069;51.568;4.656;2022-10-16T08:24:39;14.67;85.10
68257;DHT22;55069;51.568;4.656;2022-10-16T08:27:05;14.66;84.98
68257;DHT22;55069;51.568;4.656;2022-10-16T08:29:32;14.57;85.72
68257;DHT22;55069;51.568;4.656;2022-10-16T08:31:57;14.55;86.01
68257;DHT22;55069;51.568;4.656;2022-10-16T08:34:23;14.49;86.11
68257;DHT22;55069;51.568;4.656;2022-10-16T08:36:48;14.55;86.19
68257;DHT22;55069;51.568;4.656;2022-10-16T08:39:15;14.67;85.29
68257;DHT22;55069;51.568;4.656;2022-10-16T08:44:34;14.84;85.06
68257;DHT22;55069;51.568;4.656;2022-10-16T08:49:47;15.04;84.18
68257;DHT22;55069;51.568;4.656;2022-10-16T08:52:16;15.22;83.32
68257;DHT22;55069;51.568;4.656;2022-10-16T08:54:45;15.32;83.45
68257;DHT22;55069;51.568;4.656;2022-10-16T08:57:23;15.45;83.27
68257;DHT22;55069;51.568;4.656;2022-10-16T08:59:50;15.50;81.57
68257;DHT22;55069;51.568;4.656;2022-10-16T09:02:22;15.59;81.71
68257;DHT22;55069;51.568;4.656;2022-10-16T09:15:55;16.25;78.94
68257;DHT22;55069;51.568;4.656;2022-10-16T09:18:24;16.38;79.32
68257;DHT22;55069;51.568;4.656;2022-10-16T09:20:53;16.51;79.38
68257;DHT22;55069;51.568;4.656;2022-10-16T09:23:28;16.52;79.26
68257;DHT22;55069;51.568;4.656;2022-10-16T09:25:55;16.66;78.25
68257;DHT22;55069;51.568;4.656;2022-10-16T09:28:21;16.69;78.24
68257;DHT22;55069;51.568;4.656;2022-10-16T09:30:48;16.69;77.74
68257;DHT22;55069;51.568;4.656;2022-10-16T09:33:18;16.66;77.49
68257;DHT22;55069;51.568;4.656;2022-10-16T09:35:47;16.76;77.83
68257;DHT22;55069;51.568;4.656;2022-10-16T09:38:28;16.82;76.72
68257;DHT22;55069;51.568;4.656;2022-10-16T09:40:58;16.82;77.54
68257;DHT22;55069;51.568;4.656;2022-10-16T09:46:20;16.89;76.76
68257;DHT22;55069;51.568;4.656;2022-10-16T09:48:51;17.00;76.73
68257;DHT22;55069;51.568;4.656;2022-10-16T09:53:56;17.07;74.87
68257;DHT22;55069;51.568;4.656;2022-10-16T09:56:30;16.83;75.06
68257;DHT22;55069;51.568;4.656;2022-10-16T09:59:45;16.83;75.76
68257;DHT22;55069;51.568;4.656;2022-10-16T10:01:51;16.69;74.58
68257;DHT22;55069;51.568;4.656;2022-10-16T10:04:18;16.72;76.19
68257;DHT22;55069;51.568;4.656;2022-10-16T10:06:50;16.83;74.93
68257;DHT22;55069;51.568;4.656;2022-10-16T10:09:37;16.68;75.48
68257;DHT22;55069;51.568;4.656;2022-10-16T10:12:18;16.59;75.61
68257;DHT22;55069;51.568;4.656;2022-10-16T10:14:47;16.68;74.88
68257;DHT22;55069;51.568;4.656;2022-10-16T10:17:16;16.83;74.77
68257;DHT22;55069;51.568;4.656;2022-10-16T10:19:47;17.00;74.46
68257;DHT22;55069;51.568;4.656;2022-10-16T10:33:27;17.49;72.20
68257;DHT22;55069;51.568;4.656;2022-10-16T10:36:01;17.59;71.04
68257;DHT22;55069;51.568;4.656;2022-10-16T10:44:16;18.40;69.25
68257;DHT22;55069;51.568;4.656;2022-10-16T10:49:43;18.26;69.33
68257;DHT22;55069;51.568;4.656;2022-10-16T10:55:59;18.69;67.98
68257;DHT22;55069;51.568;4.656;2022-10-16T11:01:33;18.52;65.64
68257;DHT22;55069;51.568;4.656;2022-10-16T11:06:50;18.41;66.90
68257;DHT22;55069;51.568;4.656;2022-10-16T11:09:24;18.58;67.27
68257;DHT22;55069;51.568;4.656;2022-10-16T11:11:54;18.26;66.61
68257;DHT22;55069;51.568;4.656;2022-10-16T11:16:58;18.60;68.35
68257;DHT22;55069;51.568;4.656;2022-10-16T11:19:31;18.72;65.94
68257;DHT22;55069;51.568;4.656;2022-10-16T11:22:15;18.57;64.96
68257;DHT22;55069;51.568;4.656;2022-10-16T11:27:20;18.73;66.51
68257;DHT22;55069;51.568;4.656;2022-10-16T11:29:59;18.69;65.37
68257;DHT22;55069;51.568;4.656;2022-10-16T11:32:40;18.64;64.93
68257;DHT22;55069;51.568;4.656;2022-10-16T11:35:17;18.82;66.42
68257;DHT22;55069;51.568;4.656;2022-10-16T11:37:46;18.79;65.01
68257;DHT22;55069;51.568;4.656;2022-10-16T11:40:28;18.88;66.26
68257;DHT22;55069;51.568;4.656;2022-10-16T11:42:59;18.38;62.83
68257;DHT22;55069;51.568;4.656;2022-10-16T11:45:42;18.47;63.98
68257;DHT22;55069;51.568;4.656;2022-10-16T11:48:20;18.50;64.21
68257;DHT22;55069;51.568;4.656;2022-10-16T11:51:05;18.55;64.44
68257;DHT22;55069;51.568;4.656;2022-10-16T11:56:12;18.57;62.69
68257;DHT22;55069;51.568;4.656;2022-10-16T12:01:27;18.61;62.38
68257;DHT22;55069;51.568;4.656;2022-10-16T12:04:05;18.72;65.07
68257;DHT22;55069;51.568;4.656;2022-10-16T12:06:51;18.85;64.68
68257;DHT22;55069;51.568;4.656;2022-10-16T12:09:34;19.16;63.77
68257;DHT22;55069;51.568;4.656;2022-10-16T12:12:00;19.20;62.60
68257;DHT22;55069;51.568;4.656;2022-10-16T12:14:38;19.13;63.24
68257;DHT22;55069;51.568;4.656;2022-10-16T12:19:57;18.68;64.47
68257;DHT22;55069;51.568;4.656;2022-10-16T12:22:23;18.48;64.95
68257;DHT22;55069;51.568;4.656;2022-10-16T12:24:51;18.33;65.53
68257;DHT22;55069;51.568;4.656;2022-10-16T12:29:55;18.31;66.15
68257;DHT22;55069;51.568;4.656;2022-10-16T12:32:30;18.67;63.76
68257;DHT22;55069;51.568;4.656;2022-10-16T12:34:57;18.71;64.24
68257;DHT22;55069;51.568;4.656;2022-10-16T12:37:26;18.69;63.75
68257;DHT22;55069;51.568;4.656;2022-10-16T12:39:54;18.91;65.82
68257;DHT22;55069;51.568;4.656;2022-10-16T12:42:32;18.99;65.51
68257;DHT22;55069;51.568;4.656;2022-10-16T12:44:59;19.19;66.42
68257;DHT22;55069;51.568;4.656;2022-10-16T12:49:56;18.55;63.82
68257;DHT22;55069;51.568;4.656;2022-10-16T12:52:34;18.98;66.00
68257;DHT22;55069;51.568;4.656;2022-10-16T12:55:00;19.27;67.63
68257;DHT22;55069;51.568;4.656;2022-10-16T13:09:05;19.02;64.88
68257;DHT22;55069;51.568;4.656;2022-10-16T13:25:14;19.15;65.60
68257;DHT22;55069;51.568;4.656;2022-10-16T13:27:58;19.33;64.54
68257;DHT22;55069;51.568;4.656;2022-10-16T13:30:26;19.29;64.47
68257;DHT22;55069;51.568;4.656;2022-10-16T13:33:20;19.26;63.71
68257;DHT22;55069;51.568;4.656;2022-10-16T13:35:51;19.40;66.01
68257;DHT22;55069;51.568;4.656;2022-10-16T13:38:20;19.40;66.95
68257;DHT22;55069;51.568;4.656;2022-10-16T13:43:17;19.19;66.46
68257;DHT22;55069;51.568;4.656;2022-10-16T13:45:56;19.20;65.00
68257;DHT22;55069;51.568;4.656;2022-10-16T13:48:22;19.23;64.46
68257;DHT22;55069;51.568;4.656;2022-10-16T13:53:35;19.46;66.27
68257;DHT22;55069;51.568;4.656;2022-10-16T13:56:06;19.54;66.44
68257;DHT22;55069;51.568;4.656;2022-10-16T13:58:33;19.49;67.11
68257;DHT22;55069;51.568;4.656;2022-10-16T14:01:01;19.56;65.76
68257;DHT22;55069;51.568;4.656;2022-10-16T14:03:28;19.45;63.44
68257;DHT22;55069;51.568;4.656;2022-10-16T14:05:57;19.27;66.85
68257;DHT22;55069;51.568;4.656;2022-10-16T14:08:25;19.13;64.29
68257;DHT22;55069;51.568;4.656;2022-10-16T14:10:54;18.99;65.72
68257;DHT22;55069;51.568;4.656;2022-10-16T14:13:28;18.87;66.22
68257;DHT22;55069;51.568;4.656;2022-10-16T14:15:54;18.89;66.55
68257;DHT22;55069;51.568;4.656;2022-10-16T14:18:24;18.91;66.70
68257;DHT22;55069;51.568;4.656;2022-10-16T14:20:51;18.98;66.48
68257;DHT22;55069;51.568;4.656;2022-10-16T14:23:37;19.12;66.21
68257;DHT22;55069;51.568;4.656;2022-10-16T14:28:38;19.19;66.59
68257;DHT22;55069;51.568;4.656;2022-10-16T14:31:33;19.16;66.75
68257;DHT22;55069;51.568;4.656;2022-10-16T14:34:01;19.13;66.79
68257;DHT22;55069;51.568;4.656;2022-10-16T14:36:27;19.05;69.22
68257;DHT22;55069;51.568;4.656;2022-10-16T14:41:26;18.94;68.79
68257;DHT22;55069;51.568;4.656;2022-10-16T14:43:54;18.85;68.63
68257;DHT22;55069;51.568;4.656;2022-10-16T14:46:23;18.73;67.50
68257;DHT22;55069;51.568;4.656;2022-10-16T14:49:13;18.65;69.10
68257;DHT22;55069;51.568;4.656;2022-10-16T14:51:41;18.72;70.05
68257;DHT22;55069;51.568;4.656;2022-10-16T14:54:09;18.62;68.49
68257;DHT22;55069;51.568;4.656;2022-10-16T14:56:53;18.58;68.63
68257;DHT22;55069;51.568;4.656;2022-10-16T14:59:31;18.51;72.03
68257;DHT22;55069;51.568;4.656;2022-10-16T15:01:57;18.51;71.48
68257;DHT22;55069;51.568;4.656;2022-10-16T15:04:23;18.51;72.37
68257;DHT22;55069;51.568;4.656;2022-10-16T15:06:49;18.45;72.13
68257;DHT22;55069;51.568;4.656;2022-10-16T15:09:15;18.38;69.85
68257;DHT22;55069;51.568;4.656;2022-10-16T15:11:41;18.37;73.00
68257;DHT22;55069;51.568;4.656;2022-10-16T15:14:11;18.34;73.97
68257;DHT22;55069;51.568;4.656;2022-10-16T15:16:38;18.23;71.76
68257;DHT22;55069;51.568;4.656;2022-10-16T15:19:04;18.24;75.91
68257;DHT22;55069;51.568;4.656;2022-10-16T15:21:31;18.12;71.33
68257;DHT22;55069;51.568;4.656;2022-10-16T15:23:58;18.14;74.18
68257;DHT22;55069;51.568;4.656;2022-10-16T15:26:26;18.12;75.26
68257;DHT22;55069;51.568;4.656;2022-10-16T15:28:52;18.06;74.99
68257;DHT22;55069;51.568;4.656;2022-10-16T15:31:18;17.97;74.95
68257;DHT22;55069;51.568;4.656;2022-10-16T15:33:44;17.90;74.45
68257;DHT22;55069;51.568;4.656;2022-10-16T15:36:13;17.85;74.81
68257;DHT22;55069;51.568;4.656;2022-10-16T15:38:38;17.86;76.70
68257;DHT22;55069;51.568;4.656;2022-10-16T15:41:04;17.79;75.40
68257;DHT22;55069;51.568;4.656;2022-10-16T15:43:29;17.75;76.96
68257;DHT22;55069;51.568;4.656;2022-10-16T15:48:27;17.66;77.38
68257;DHT22;55069;51.568;4.656;2022-10-16T15:50:53;17.66;78.08
68257;DHT22;55069;51.568;4.656;2022-10-16T15:53:19;17.58;78.55
68257;DHT22;55069;51.568;4.656;2022-10-16T15:55:44;17.55;78.15
68257;DHT22;55069;51.568;4.656;2022-10-16T15:58:10;17.48;79.31
68257;DHT22;55069;51.568;4.656;2022-10-16T16:00:35;17.41;79.09
68257;DHT22;55069;51.568;4.656;2022-10-16T16:03:01;17.42;80.40
68257;DHT22;55069;51.568;4.656;2022-10-16T16:05:27;17.34;78.49
68257;DHT22;55069;51.568;4.656;2022-10-16T16:07:53;17.26;78.01
68257;DHT22;55069;51.568;4.656;2022-10-16T16:10:19;17.31;80.49
68257;DHT22;55069;51.568;4.656;2022-10-16T16:12:47;17.24;80.27
68257;DHT22;55069;51.568;4.656;2022-10-16T16:15:17;17.10;78.12
68257;DHT22;55069;51.568;4.656;2022-10-16T16:17:43;17.16;81.16
68257;DHT22;55069;51.568;4.656;2022-10-16T16:20:09;17.10;80.83
68257;DHT22;55069;51.568;4.656;2022-10-16T16:22:35;16.97;79.31
68257;DHT22;55069;51.568;4.656;2022-10-16T16:25:00;16.99;81.23
68257;DHT22;55069;51.568;4.656;2022-10-16T16:27:26;16.99;80.97
68257;DHT22;55069;51.568;4.656;2022-10-16T16:29:54;16.97;81.83
68257;DHT22;55069;51.568;4.656;2022-10-16T16:32:20;16.94;81.67
68257;DHT22;55069;51.568;4.656;2022-10-16T16:34:46;16.90;81.73
68257;DHT22;55069;51.568;4.656;2022-10-16T16:37:11;16.86;82.21
68257;DHT22;55069;51.568;4.656;2022-10-16T16:39:37;16.84;82.51
68257;DHT22;55069;51.568;4.656;2022-10-16T16:42:03;16.80;82.92
68257;DHT22;55069;51.568;4.656;2022-10-16T16:44:29;16.77;82.92
68257;DHT22;55069;51.568;4.656;2022-10-16T16:46:55;16.76;82.89
68257;DHT22;55069;51.568;4.656;2022-10-16T16:49:20;16.68;82.85
68257;DHT22;55069;51.568;4.656;2022-10-16T16:51:46;16.66;82.84
68257;DHT22;55069;51.568;4.656;2022-10-16T16:54:11;16.61;82.72
68257;DHT22;55069;51.568;4.656;2022-10-16T16:56:39;16.58;82.30
68257;DHT22;55069;51.568;4.656;2022-10-16T16:59:12;16.56;83.11
68257;DHT22;55069;51.568;4.656;2022-10-16T17:01:38;16.52;83.12
68257;DHT22;55069;51.568;4.656;2022-10-16T17:04:05;16.47;82.72
68257;DHT22;55069;51.568;4.656;2022-10-16T17:06:30;16.41;82.69
68257;DHT22;55069;51.568;4.656;2022-10-16T17:08:56;16.36;83.01
68257;DHT22;55069;51.568;4.656;2022-10-16T17:11:24;16.25;82.20
68257;DHT22;55069;51.568;4.656;2022-10-16T17:13:51;16.31;83.46
68257;DHT22;55069;51.568;4.656;2022-10-16T17:16:19;16.21;82.93
68257;DHT22;55069;51.568;4.656;2022-10-16T17:18:45;16.21;83.18
68257;DHT22;55069;51.568;4.656;2022-10-16T17:21:11;16.26;83.94
68257;DHT22;55069;51.568;4.656;2022-10-16T17:23:37;16.21;83.35
68257;DHT22;55069;51.568;4.656;2022-10-16T17:26:08;16.14;83.65
68257;DHT22;55069;51.568;4.656;2022-10-16T17:28:33;16.08;83.43
68257;DHT22;55069;51.568;4.656;2022-10-16T17:31:14;16.07;83.50
68257;DHT22;55069;51.568;4.656;2022-10-16T17:33:40;16.04;84.03
68257;DHT22;55069;51.568;4.656;2022-10-16T17:36:07;16.03;84.05
68257;DHT22;55069;51.568;4.656;2022-10-16T17:38:33;16.03;83.82
68257;DHT22;55069;51.568;4.656;2022-10-16T17:41:16;16.00;84.17
68257;DHT22;55069;51.568;4.656;2022-10-16T17:43:42;16.03;84.29
68257;DHT22;55069;51.568;4.656;2022-10-16T17:46:09;15.98;84.24